Time;durP1;ratioP1;P1;durP2;ratioP2;P2;SDS_P1;SDS_P2;PMS_P1;PMS_P2;Temp;Humidity;BMP_temperature;BMP_pressure;BME280_temperature;BME280_humidity;BME280_pressure;Samples;Min_cycle;Max_cycle;Signal;HPM_P1;HPM_P2
2021/10/26 00:01:08;;;;;;;14.93;10.13;;;7.40;55.40;;;;;;4987396;28;20474;-51
2021/10/26 00:03:35;;;;;;;13.93;10.05;;;7.40;55.30;;;;;;4981166;28;20379;-51
2021/10/26 00:06:01;;;;;;;16.13;10.85;;;7.40;55.20;;;;;;4987682;28;20077;-51
2021/10/26 00:08:26;;;;;;;17.67;10.70;;;7.40;55.30;;;;;;4981070;28;20419;-52
2021/10/26 00:10:52;;;;;;;17.77;11.65;;;7.40;55.40;;;;;;4984168;28;20031;-51
2021/10/26 00:13:18;;;;;;;18.48;11.82;;;7.40;55.30;;;;;;4983739;28;20034;-52
2021/10/26 00:15:45;;;;;;;19.08;11.82;;;7.40;55.50;;;;;;4984316;28;20023;-51
2021/10/26 00:18:11;;;;;;;17.67;11.63;;;7.40;55.20;;;;;;4985045;28;20030;-51
2021/10/26 00:20:37;;;;;;;17.40;11.68;;;7.40;55.30;;;;;;4981542;28;20498;-51
2021/10/26 00:23:03;;;;;;;18.02;11.60;;;7.40;55.60;;;;;;4982370;28;20031;-50
2021/10/26 00:25:29;;;;;;;17.48;12.15;;;7.40;55.50;;;;;;4984613;28;20046;-51
2021/10/26 00:27:55;;;;;;;18.38;10.65;;;7.40;55.30;;;;;;4986546;28;20027;-51
2021/10/26 00:30:21;;;;;;;15.68;10.82;;;7.40;55.30;;;;;;4984272;28;20109;-51
2021/10/26 00:32:47;;;;;;;18.38;11.75;;;7.40;55.30;;;;;;4981607;28;20038;-51
2021/10/26 00:35:13;;;;;;;16.95;11.70;;;7.40;55.30;;;;;;4983837;28;20041;-53
2021/10/26 00:37:39;;;;;;;18.08;11.55;;;7.40;55.30;;;;;;4981971;28;20468;-53
2021/10/26 00:40:06;;;;;;;15.00;10.88;;;7.40;55.30;;;;;;4984271;28;20093;-52
2021/10/26 00:42:32;;;;;;;15.32;11.00;;;7.40;55.40;;;;;;4982613;28;20058;-51
2021/10/26 00:44:58;;;;;;;14.82;10.75;;;7.30;55.30;;;;;;4981189;28;20116;-51
2021/10/26 00:47:24;;;;;;;14.43;9.98;;;7.30;55.30;;;;;;4983328;28;20027;-51
2021/10/26 00:49:49;;;;;;;15.43;10.18;;;7.30;55.30;;;;;;4982321;28;20110;-52
2021/10/26 00:52:15;;;;;;;14.25;9.02;;;7.20;55.30;;;;;;4983842;28;20089;-51
2021/10/26 00:54:41;;;;;;;14.05;9.23;;;7.20;55.30;;;;;;4980824;28;20085;-51
2021/10/26 00:57:08;;;;;;;14.10;10.02;;;7.10;55.30;;;;;;4984050;28;20116;-51
2021/10/26 00:59:33;;;;;;;17.10;9.80;;;7.10;55.50;;;;;;4981837;28;20129;-51
2021/10/26 01:01:59;;;;;;;15.52;9.60;;;7.10;55.50;;;;;;4983769;28;20126;-52
2021/10/26 01:04:25;;;;;;;14.98;9.55;;;7.10;55.60;;;;;;4981599;28;20030;-51
2021/10/26 01:06:51;;;;;;;13.18;9.20;;;7.00;55.60;;;;;;4982421;28;20019;-51
2021/10/26 01:09:17;;;;;;;12.75;9.25;;;7.00;55.80;;;;;;4983980;28;20081;-51
2021/10/26 01:11:44;;;;;;;15.23;9.15;;;7.00;55.60;;;;;;4981065;28;20467;-51
2021/10/26 01:14:10;;;;;;;14.07;8.90;;;7.00;55.80;;;;;;4983591;28;20443;-52
2021/10/26 01:16:37;;;;;;;13.18;9.27;;;7.00;55.70;;;;;;4978814;28;20047;-51
2021/10/26 01:19:02;;;;;;;13.00;8.65;;;7.00;55.80;;;;;;4983502;28;20038;-51
2021/10/26 01:21:29;;;;;;;14.20;9.25;;;7.00;55.90;;;;;;4982035;28;20497;-51
2021/10/26 01:23:55;;;;;;;12.63;8.90;;;6.90;55.70;;;;;;4982122;28;20035;-51
2021/10/26 01:26:21;;;;;;;16.35;10.38;;;6.90;55.80;;;;;;4982747;28;20430;-52
2021/10/26 01:28:46;;;;;;;13.82;9.90;;;6.90;55.90;;;;;;4984471;28;20032;-52
2021/10/26 01:31:12;;;;;;;14.38;10.15;;;6.90;56.00;;;;;;4983830;28;20030;-51
2021/10/26 01:33:39;;;;;;;14.80;10.57;;;6.90;56.00;;;;;;4980047;28;20031;-51
2021/10/26 01:36:04;;;;;;;15.98;11.05;;;6.90;55.90;;;;;;4982737;28;20449;-51
2021/10/26 01:38:30;;;;;;;19.20;12.02;;;6.90;56.00;;;;;;4981858;28;20022;-51
2021/10/26 01:40:56;;;;;;;19.23;13.70;;;6.90;56.00;;;;;;4982324;28;20108;-51
2021/10/26 01:43:22;;;;;;;16.67;11.98;;;6.90;55.90;;;;;;4985872;28;20482;-51
2021/10/26 01:45:49;;;;;;;18.80;12.93;;;6.90;55.90;;;;;;4984332;28;20475;-51
2021/10/26 01:48:14;;;;;;;17.95;14.23;;;6.90;56.00;;;;;;4987858;28;20116;-50
2021/10/26 01:50:40;;;;;;;20.80;13.50;;;6.90;56.00;;;;;;4988455;28;20066;-52
2021/10/26 01:53:06;;;;;;;18.35;12.32;;;6.90;56.00;;;;;;4986494;28;20019;-55
2021/10/26 01:55:32;;;;;;;19.42;13.38;;;6.90;56.00;;;;;;4985044;28;20085;-51
2021/10/26 01:57:57;;;;;;;17.77;12.30;;;6.90;56.10;;;;;;4987756;28;20022;-51
2021/10/26 02:00:23;;;;;;;15.65;12.55;;;7.00;56.10;;;;;;4984483;28;20160;-52
2021/10/26 02:02:50;;;;;;;15.75;11.20;;;7.00;56.10;;;;;;4987324;28;20360;-52
2021/10/26 02:05:17;;;;;;;15.82;11.30;;;7.00;56.10;;;;;;4984396;28;20026;-52
2021/10/26 02:07:44;;;;;;;16.13;10.95;;;7.00;56.00;;;;;;4984415;28;20077;-51
2021/10/26 02:10:10;;;;;;;14.18;10.77;;;7.00;56.00;;;;;;4987709;28;20041;-51
2021/10/26 02:12:37;;;;;;;16.23;11.60;;;7.00;56.10;;;;;;4985256;28;20030;-52
2021/10/26 02:15:05;;;;;;;15.38;11.15;;;7.00;56.00;;;;;;4984099;28;20035;-52
2021/10/26 02:17:31;;;;;;;17.55;11.73;;;7.00;56.00;;;;;;4986748;28;20475;-51
2021/10/26 02:19:57;;;;;;;15.85;10.23;;;7.00;55.90;;;;;;4983302;28;20023;-51
2021/10/26 02:22:22;;;;;;;15.77;10.95;;;7.00;55.90;;;;;;4986207;28;20084;-52
2021/10/26 02:24:49;;;;;;;14.68;10.23;;;7.00;55.90;;;;;;4987096;28;20022;-52
2021/10/26 02:27:15;;;;;;;14.38;9.82;;;6.90;55.80;;;;;;4987080;28;20030;-51
2021/10/26 02:29:40;;;;;;;13.35;10.00;;;6.90;56.00;;;;;;4984500;28;20038;-51
2021/10/26 02:32:07;;;;;;;11.50;8.65;;;6.90;56.00;;;;;;4984521;28;20054;-53
2021/10/26 02:34:33;;;;;;;13.48;9.18;;;6.90;56.20;;;;;;4985384;28;20030;-52
2021/10/26 02:36:59;;;;;;;13.13;8.90;;;6.80;56.10;;;;;;4981636;28;20263;-52
2021/10/26 02:39:25;;;;;;;14.65;9.02;;;6.80;56.10;;;;;;4997986;28;20394;-51
2021/10/26 02:41:50;;;;;;;12.55;8.38;;;6.80;56.20;;;;;;4996050;28;20097;-52
2021/10/26 02:44:16;;;;;;;12.38;8.68;;;6.80;56.20;;;;;;4994147;28;20054;-51
2021/10/26 02:46:43;;;;;;;14.43;8.68;;;6.80;56.20;;;;;;4994680;28;20014;-51
2021/10/26 02:49:09;;;;;;;11.98;7.85;;;6.80;56.20;;;;;;4994581;28;20030;-51
2021/10/26 02:51:35;;;;;;;12.63;8.57;;;6.80;56.30;;;;;;4992381;28;20065;-52
2021/10/26 02:54:01;;;;;;;11.88;7.93;;;6.80;56.30;;;;;;4974034;28;20038;-52
2021/10/26 02:56:27;;;;;;;10.80;7.30;;;6.80;56.30;;;;;;4994025;28;20048;-52
2021/10/26 02:58:53;;;;;;;13.85;8.48;;;6.80;56.40;;;;;;4994500;28;20023;-51
2021/10/26 03:01:19;;;;;;;14.80;8.77;;;6.80;56.40;;;;;;4994707;28;20469;-54
2021/10/26 03:03:45;;;;;;;15.40;9.38;;;6.80;56.30;;;;;;4994494;28;20030;-52
2021/10/26 03:06:12;;;;;;;13.15;8.70;;;6.80;56.30;;;;;;4993884;28;20033;-55
2021/10/26 03:08:38;;;;;;;13.50;8.55;;;6.80;56.30;;;;;;4994005;28;20105;-52
2021/10/26 03:11:04;;;;;;;12.30;8.35;;;6.80;56.40;;;;;;4994393;28;20514;-51
2021/10/26 03:13:30;;;;;;;15.45;9.23;;;6.80;56.40;;;;;;4994177;28;20109;-52
2021/10/26 03:15:57;;;;;;;15.48;9.15;;;6.80;56.30;;;;;;4993855;28;20041;-51
2021/10/26 03:18:23;;;;;;;16.83;9.75;;;6.80;56.40;;;;;;4994469;28;20363;-51
2021/10/26 03:20:49;;;;;;;15.55;8.93;;;6.80;56.50;;;;;;4989406;28;20026;-51
2021/10/26 03:23:14;;;;;;;14.10;9.82;;;6.80;56.40;;;;;;4980156;28;20439;-51
2021/10/26 03:25:40;;;;;;;13.32;8.63;;;6.80;56.40;;;;;;4993289;28;20049;-52
2021/10/26 03:28:09;;;;;;;13.43;9.68;;;6.70;56.40;;;;;;4994084;28;20080;-51
2021/10/26 03:30:36;;;;;;;13.57;9.98;;;6.70;56.50;;;;;;4983440;28;20371;-51
2021/10/26 03:33:02;;;;;;;15.48;10.13;;;6.70;56.40;;;;;;4974476;28;20027;-52
2021/10/26 03:35:27;;;;;;;12.57;9.50;;;6.70;56.50;;;;;;4990438;28;20084;-52
2021/10/26 03:37:53;;;;;;;13.73;9.38;;;6.70;56.50;;;;;;4993630;28;20076;-51
2021/10/26 03:40:19;;;;;;;13.50;9.90;;;6.70;56.70;;;;;;4993708;28;20431;-51
2021/10/26 03:42:44;;;;;;;16.80;11.10;;;6.80;56.70;;;;;;4983944;28;20038;-52
2021/10/26 03:45:10;;;;;;;18.23;12.15;;;6.80;56.70;;;;;;4987807;28;20067;-51
2021/10/26 03:47:46;;;;;;;18.90;13.32;;;6.80;56.80;;;;;;4993690;28;20463;-52
2021/10/26 03:50:14;;;;;;;21.30;13.32;;;6.80;56.80;;;;;;4993868;28;20355;-52
2021/10/26 03:52:39;;;;;;;20.40;13.80;;;6.80;56.70;;;;;;4993656;28;20486;-51
2021/10/26 03:55:06;;;;;;;18.45;12.20;;;6.80;56.70;;;;;;4980713;28;20031;-52
2021/10/26 03:57:33;;;;;;;17.38;11.63;;;6.80;56.70;;;;;;4988763;28;20030;-51
2021/10/26 03:59:59;;;;;;;15.85;9.80;;;6.80;56.70;;;;;;4992874;28;20522;-52
2021/10/26 04:02:27;;;;;;;12.98;9.48;;;6.80;56.60;;;;;;4992571;28;20113;-54
2021/10/26 04:04:57;;;;;;;14.40;10.32;;;6.80;56.70;;;;;;4982224;28;20407;-51
2021/10/26 04:07:24;;;;;;;17.85;10.93;;;6.80;56.70;;;;;;4974028;28;20030;-51
2021/10/26 04:09:54;;;;;;;18.10;10.63;;;6.80;56.60;;;;;;4975839;28;20022;-55
2021/10/26 04:12:26;;;;;;;18.30;12.52;;;6.80;56.70;;;;;;4993519;28;20030;-54
2021/10/26 04:14:54;;;;;;;21.35;12.23;;;6.80;56.70;;;;;;4992710;28;20046;-52
2021/10/26 04:17:21;;;;;;;18.25;11.32;;;6.70;56.70;;;;;;4978399;28;20511;-51
2021/10/26 04:19:48;;;;;;;18.15;10.77;;;6.70;56.50;;;;;;4973910;28;20027;-51
2021/10/26 04:22:15;;;;;;;18.00;11.68;;;6.70;56.60;;;;;;4976103;28;20054;-52
2021/10/26 04:24:42;;;;;;;15.50;11.02;;;6.70;56.60;;;;;;4993006;28;20030;-52
2021/10/26 04:27:08;;;;;;;16.45;11.32;;;6.70;56.60;;;;;;4993277;28;20031;-51
2021/10/26 04:29:34;;;;;;;17.25;11.43;;;6.60;56.70;;;;;;4993055;28;20042;-51
2021/10/26 04:32:00;;;;;;;16.65;11.48;;;6.60;56.60;;;;;;4990623;28;20385;-52
2021/10/26 04:34:25;;;;;;;16.63;10.93;;;6.60;56.70;;;;;;4973029;28;20038;-54
2021/10/26 04:36:51;;;;;;;16.10;11.05;;;6.60;56.90;;;;;;4973510;28;20038;-54
2021/10/26 04:39:16;;;;;;;13.68;10.05;;;6.60;56.90;;;;;;4973399;28;20102;-52
2021/10/26 04:41:42;;;;;;;17.80;10.55;;;6.70;57.00;;;;;;4977541;28;20113;-52
2021/10/26 04:44:08;;;;;;;14.52;10.40;;;6.60;56.80;;;;;;4990680;28;20143;-52
2021/10/26 04:46:34;;;;;;;17.30;11.07;;;6.60;57.00;;;;;;4990988;28;20034;-52
2021/10/26 04:49:01;;;;;;;14.65;10.45;;;6.70;56.90;;;;;;4990921;28;20018;-51
2021/10/26 04:51:27;;;;;;;15.43;10.65;;;6.70;56.90;;;;;;4977124;28;20080;-51
2021/10/26 04:53:52;;;;;;;14.77;10.15;;;6.70;56.80;;;;;;4979850;28;20475;-52
2021/10/26 04:56:18;;;;;;;13.55;9.68;;;6.70;57.10;;;;;;4983037;28;20402;-52
2021/10/26 04:58:43;;;;;;;12.50;9.75;;;6.70;56.80;;;;;;4984539;28;20035;-52
2021/10/26 05:01:09;;;;;;;13.27;9.40;;;6.80;56.90;;;;;;4986443;28;20440;-54
2021/10/26 05:03:35;;;;;;;14.90;9.27;;;6.80;57.00;;;;;;4981710;28;20031;-52
2021/10/26 05:06:03;;;;;;;11.05;9.18;;;6.80;56.90;;;;;;4986040;28;20082;-54
2021/10/26 05:08:29;;;;;;;12.50;8.88;;;6.80;56.90;;;;;;4982171;28;20125;-52
2021/10/26 05:10:54;;;;;;;12.30;8.85;;;6.90;57.00;;;;;;4982094;28;20026;-52
2021/10/26 05:13:20;;;;;;;13.85;9.13;;;6.90;56.90;;;;;;4985663;28;20036;-52
2021/10/26 05:15:46;;;;;;;12.65;9.55;;;6.90;56.90;;;;;;4985169;28;20026;-52
2021/10/26 05:18:13;;;;;;;13.60;9.68;;;7.00;56.90;;;;;;4990200;28;20030;-52
2021/10/26 05:20:40;;;;;;;13.15;9.63;;;7.00;56.90;;;;;;4992582;28;20141;-52
2021/10/26 05:23:07;;;;;;;14.73;9.07;;;7.00;56.80;;;;;;4991777;28;20022;-52
2021/10/26 05:25:33;;;;;;;15.43;9.68;;;7.10;56.80;;;;;;4993077;28;20026;-53
2021/10/26 05:27:59;;;;;;;14.02;9.80;;;7.10;56.70;;;;;;4989734;28;20018;-52
2021/10/26 05:30:25;;;;;;;13.85;9.80;;;7.10;56.80;;;;;;4983159;28;20058;-53
2021/10/26 05:32:51;;;;;;;17.13;10.40;;;7.10;56.60;;;;;;4983337;28;20065;-52
2021/10/26 05:35:17;;;;;;;12.23;9.70;;;7.20;56.70;;;;;;4986844;28;20026;-54
2021/10/26 05:37:42;;;;;;;13.63;10.10;;;7.20;56.80;;;;;;4987112;28;20032;-53
2021/10/26 05:40:09;;;;;;;17.10;11.40;;;7.20;56.70;;;;;;4987384;28;20515;-52
2021/10/26 05:42:35;;;;;;;16.05;11.07;;;7.30;56.70;;;;;;4985691;28;20038;-54
2021/10/26 05:45:02;;;;;;;14.20;11.35;;;7.40;56.70;;;;;;4979547;28;20508;-55
2021/10/26 05:47:28;;;;;;;17.17;12.20;;;7.40;56.50;;;;;;4980588;28;20023;-54
2021/10/26 05:49:53;;;;;;;18.20;12.38;;;7.50;56.50;;;;;;4979550;28;20045;-53
2021/10/26 05:52:20;;;;;;;16.13;12.65;;;7.50;56.40;;;;;;4981699;28;21644;-53
2021/10/26 05:54:47;;;;;;;17.17;12.57;;;7.60;56.30;;;;;;4984108;28;20255;-53
2021/10/26 05:57:12;;;;;;;17.88;12.40;;;7.60;56.30;;;;;;4983061;28;20060;-54
2021/10/26 05:59:38;;;;;;;20.73;13.75;;;7.70;56.30;;;;;;4981236;28;20039;-52
2021/10/26 06:02:04;;;;;;;20.50;12.85;;;7.70;56.20;;;;;;4981223;28;20035;-56
2021/10/26 06:04:29;;;;;;;19.55;13.55;;;7.70;56.00;;;;;;4982225;28;20498;-53
2021/10/26 06:06:56;;;;;;;21.13;14.20;;;7.80;56.00;;;;;;4981230;28;20037;-53
2021/10/26 06:09:22;;;;;;;17.52;14.15;;;7.90;56.00;;;;;;4985291;28;20154;-53
2021/10/26 06:11:50;;;;;;;19.67;14.90;;;7.90;56.00;;;;;;4968342;28;20482;-55
2021/10/26 06:14:16;;;;;;;23.00;15.80;;;8.00;56.00;;;;;;4984511;28;20034;-54
2021/10/26 06:16:42;;;;;;;25.05;14.98;;;8.10;56.00;;;;;;4977753;28;20449;-52
2021/10/26 06:19:09;;;;;;;19.75;15.15;;;8.30;55.90;;;;;;4980486;28;20034;-54
2021/10/26 06:21:35;;;;;;;24.08;16.00;;;8.40;55.90;;;;;;4976197;28;20043;-56
2021/10/26 06:24:01;;;;;;;18.65;14.55;;;8.50;55.80;;;;;;4982735;28;20459;-55
2021/10/26 06:26:28;;;;;;;21.00;14.00;;;8.70;55.80;;;;;;4986229;28;20399;-56
2021/10/26 06:28:55;;;;;;;22.13;14.25;;;8.80;55.60;;;;;;4982478;28;20038;-56
2021/10/26 06:31:21;;;;;;;18.77;13.82;;;9.00;55.50;;;;;;4986457;28;20030;-56
2021/10/26 06:33:47;;;;;;;18.02;11.43;;;9.10;55.40;;;;;;4982209;28;20073;-56
2021/10/26 06:36:13;;;;;;;14.27;10.82;;;9.20;55.30;;;;;;4986841;28;20049;-56
2021/10/26 06:38:39;;;;;;;14.98;9.43;;;9.20;54.90;;;;;;4983873;28;20061;-57
2021/10/26 06:41:05;;;;;;;11.80;9.52;;;9.30;54.70;;;;;;4977726;28;20157;-55
2021/10/26 06:43:32;;;;;;;12.23;9.57;;;9.40;54.70;;;;;;4972531;28;20113;-55
2021/10/26 06:45:58;;;;;;;14.57;9.65;;;9.40;54.50;;;;;;4980882;28;20451;-56
2021/10/26 06:48:24;;;;;;;12.05;8.65;;;9.50;54.50;;;;;;4979724;28;20162;-56
2021/10/26 06:50:50;;;;;;;12.40;9.60;;;9.50;54.40;;;;;;4984329;28;20026;-55
2021/10/26 06:53:17;;;;;;;10.98;8.88;;;9.60;54.40;;;;;;4981168;28;20042;-55
2021/10/26 06:55:44;;;;;;;13.20;9.43;;;9.60;54.40;;;;;;4975327;28;20030;-55
2021/10/26 06:58:10;;;;;;;12.88;10.82;;;9.60;54.20;;;;;;4979838;28;20049;-56
2021/10/26 07:00:36;;;;;;;13.35;9.70;;;9.70;54.20;;;;;;4979889;28;20026;-56
2021/10/26 07:03:04;;;;;;;13.63;9.35;;;9.70;54.10;;;;;;4972672;28;20082;-56
2021/10/26 07:05:31;;;;;;;13.57;9.82;;;9.70;53.90;;;;;;4975112;28;20521;-56
2021/10/26 07:07:58;;;;;;;11.85;9.27;;;9.70;54.00;;;;;;4957483;28;20036;-56
2021/10/26 07:10:24;;;;;;;14.48;10.73;;;9.80;54.00;;;;;;4975546;28;20038;-54
2021/10/26 07:12:51;;;;;;;12.55;9.45;;;9.90;54.00;;;;;;4973753;28;20157;-56
2021/10/26 07:15:17;;;;;;;12.07;9.32;;;9.90;53.90;;;;;;4977725;28;20041;-56
2021/10/26 07:17:43;;;;;;;13.13;9.88;;;9.90;53.80;;;;;;4968451;28;20039;-56
2021/10/26 07:20:12;;;;;;;12.95;8.63;;;9.90;53.70;;;;;;4967948;28;20061;-55
2021/10/26 07:22:38;;;;;;;12.02;8.52;;;9.90;53.60;;;;;;4960174;28;20106;-56
2021/10/26 07:25:08;;;;;;;12.35;9.35;;;10.00;53.50;;;;;;4963973;28;20045;-56
2021/10/26 07:27:35;;;;;;;13.57;8.98;;;10.00;53.50;;;;;;4967346;28;20053;-55
2021/10/26 07:30:01;;;;;;;11.95;8.48;;;10.00;53.50;;;;;;4975137;28;20042;-55
2021/10/26 07:32:28;;;;;;;11.25;8.40;;;10.00;53.40;;;;;;4971646;28;20852;-55
2021/10/26 07:34:54;;;;;;;11.43;8.10;;;10.10;53.40;;;;;;4976647;28;20035;-56
2021/10/26 07:37:23;;;;;;;10.32;8.40;;;10.10;53.20;;;;;;4972899;28;20034;-56
2021/10/26 07:39:51;;;;;;;12.13;7.55;;;10.10;53.40;;;;;;4981555;28;20141;-55
2021/10/26 07:42:19;;;;;;;13.02;8.55;;;10.10;53.30;;;;;;4994187;28;20029;-56
2021/10/26 07:44:50;;;;;;;10.80;8.32;;;10.20;53.20;;;;;;4996611;28;20379;-55
2021/10/26 07:47:16;;;;;;;15.73;8.02;;;10.20;53.20;;;;;;4998335;28;20030;-55
2021/10/26 07:49:43;;;;;;;9.95;7.38;;;10.20;53.00;;;;;;4990925;28;20521;-55
2021/10/26 07:52:09;;;;;;;10.10;7.63;;;10.30;52.90;;;;;;4968068;28;20061;-53
2021/10/26 07:54:34;;;;;;;10.10;7.38;;;10.30;52.90;;;;;;4982335;28;20462;-55
2021/10/26 07:57:00;;;;;;;11.77;8.00;;;10.30;52.80;;;;;;4985105;28;20041;-55
2021/10/26 07:59:26;;;;;;;10.88;7.03;;;10.30;52.90;;;;;;4977457;28;20042;-55
2021/10/26 08:01:52;;;;;;;10.10;6.90;;;10.30;52.90;;;;;;4988834;28;20169;-55
2021/10/26 08:04:17;;;;;;;9.40;6.78;;;10.30;52.80;;;;;;4991794;28;20030;-54
2021/10/26 08:06:47;;;;;;;10.18;6.65;;;10.40;52.80;;;;;;4985303;28;20029;-55
2021/10/26 08:09:15;;;;;;;8.10;5.93;;;10.40;52.80;;;;;;4984807;28;20049;-55
2021/10/26 08:11:41;;;;;;;8.43;5.90;;;10.40;52.90;;;;;;4980512;28;20041;-55
2021/10/26 08:14:07;;;;;;;8.68;5.60;;;10.50;53.00;;;;;;4972583;28;20034;-55
2021/10/26 08:16:33;;;;;;;8.38;5.50;;;10.60;53.00;;;;;;4979400;28;20080;-55
2021/10/26 08:19:00;;;;;;;9.60;5.53;;;10.60;52.90;;;;;;4977973;28;20034;-55
2021/10/26 08:21:27;;;;;;;7.78;5.88;;;10.60;52.80;;;;;;4988813;28;20081;-54
2021/10/26 08:23:53;;;;;;;6.55;4.90;;;10.70;52.70;;;;;;4993743;28;20033;-54
2021/10/26 08:26:39;;;;;;;5.93;4.95;;;10.70;52.60;;;;;;4978218;28;20297;-54
2021/10/26 08:37:08;;;;;;;5.55;4.20;;;10.90;52.50;;;;;;4993713;28;20117;-55
2021/10/26 08:39:38;;;;;;;10.75;5.25;;;10.90;52.50;;;;;;4983615;28;21394;-55
2021/10/26 08:42:06;;;;;;;9.13;4.85;;;11.00;52.40;;;;;;4973106;28;20034;-55
2021/10/26 08:44:33;;;;;;;7.18;4.40;;;11.00;52.40;;;;;;4972761;28;20038;-54
2021/10/26 08:46:59;;;;;;;7.25;4.35;;;11.10;52.40;;;;;;4971692;28;20026;-55
2021/10/26 08:49:25;;;;;;;7.78;4.78;;;11.10;52.40;;;;;;4970189;28;20780;-55
2021/10/26 08:51:52;;;;;;;6.80;4.25;;;11.20;52.30;;;;;;4972773;28;20971;-54
2021/10/26 08:54:19;;;;;;;6.32;4.82;;;11.20;52.10;;;;;;4977840;28;20056;-56
2021/10/26 08:56:48;;;;;;;7.35;4.05;;;11.20;52.00;;;;;;4975903;28;20045;-56
2021/10/26 08:59:19;;;;;;;6.60;4.20;;;11.30;51.80;;;;;;4976705;28;20034;-55
2021/10/26 09:01:55;;;;;;;5.65;3.92;;;11.30;51.70;;;;;;4978166;28;20121;-56
2021/10/26 09:04:20;;;;;;;6.15;4.35;;;11.30;51.60;;;;;;4977535;28;20574;-56
2021/10/26 09:06:52;;;;;;;4.50;3.78;;;11.40;51.50;;;;;;4978370;28;20097;-56
2021/10/26 09:09:27;;;;;;;5.78;4.07;;;11.40;51.50;;;;;;4982013;28;20042;-55
2021/10/26 09:17:48;;;;;;;5.85;3.85;;;11.50;50.90;;;;;;4965571;28;20045;-55
2021/10/26 09:20:22;;;;;;;6.50;4.38;;;11.50;50.90;;;;;;4967630;28;21849;-54
2021/10/26 09:22:50;;;;;;;5.63;4.00;;;11.50;50.90;;;;;;4964641;28;20046;-55
2021/10/26 09:25:17;;;;;;;6.65;4.15;;;11.50;50.90;;;;;;4966323;28;20109;-54
2021/10/26 09:27:44;;;;;;;6.10;4.40;;;11.50;50.70;;;;;;4972380;28;20161;-55
2021/10/26 09:30:13;;;;;;;7.80;4.50;;;11.60;50.90;;;;;;4966167;28;20038;-53
2021/10/26 09:32:40;;;;;;;7.45;4.10;;;11.60;50.80;;;;;;4971865;28;20045;-55
2021/10/26 09:35:08;;;;;;;7.95;4.80;;;11.60;50.90;;;;;;4977855;28;20109;-54
2021/10/26 09:37:49;;;;;;;6.72;4.70;;;11.60;50.80;;;;;;4974023;28;20093;-54
2021/10/26 09:40:16;;;;;;;;;;;11.60;50.60;;;;;;4953955;28;23732;-55
2021/10/26 09:42:44;;;;;;;6.25;4.40;;;11.60;50.50;;;;;;4970905;28;20016;-54
2021/10/26 09:45:26;;;;;;;7.65;4.93;;;11.60;50.70;;;;;;4977717;28;20043;-55
2021/10/26 09:48:06;;;;;;;;;;;11.70;50.70;;;;;;4975477;28;20113;-55
2021/10/26 09:50:34;;;;;;;7.00;4.45;;;11.60;50.50;;;;;;4973709;28;19918;-54
2021/10/26 09:53:11;;;;;;;6.85;4.38;;;11.60;50.50;;;;;;4974380;28;20041;-56
2021/10/26 09:55:47;;;;;;;9.63;4.70;;;11.60;50.50;;;;;;4975609;28;20486;-55
2021/10/26 09:58:13;;;;;;;6.07;4.55;;;11.60;50.50;;;;;;4968163;28;20088;-55
2021/10/26 10:00:42;;;;;;;6.35;4.65;;;11.60;50.50;;;;;;4978510;28;20049;-54
2021/10/26 10:03:15;;;;;;;6.13;4.65;;;11.60;50.60;;;;;;4977901;28;20577;-56
2021/10/26 10:05:54;;;;;;;7.25;4.80;;;11.60;50.70;;;;;;4972781;28;20353;-53
2021/10/26 10:08:23;;;;;;;6.35;4.40;;;11.60;50.70;;;;;;4972621;28;20072;-55
2021/10/26 10:10:54;;;;;;;6.20;4.40;;;11.70;50.70;;;;;;4974683;28;20117;-52
2021/10/26 10:13:21;;;;;;;7.70;4.38;;;11.70;50.60;;;;;;4976967;28;20085;-54
2021/10/26 10:15:48;;;;;;;6.68;4.60;;;11.70;50.60;;;;;;4977911;28;20034;-55
2021/10/26 10:18:19;;;;;;;8.77;4.68;;;11.80;50.60;;;;;;4975437;28;20037;-55
2021/10/26 10:20:48;;;;;;;8.07;5.35;;;11.80;50.60;;;;;;4979895;28;20418;-55
2021/10/26 10:23:15;;;;;;;8.60;4.95;;;11.80;50.40;;;;;;4976566;28;20950;-55
2021/10/26 10:25:47;;;;;;;6.82;4.95;;;11.90;50.50;;;;;;4977880;28;20109;-52
2021/10/26 10:28:21;;;;;;;7.18;5.00;;;11.90;50.40;;;;;;4984668;28;20589;-54
2021/10/26 10:30:48;;;;;;;10.25;5.97;;;11.90;51.10;;;;;;4978378;28;20030;-55
2021/10/26 10:33:17;;;;;;;10.80;6.32;;;11.90;50.40;;;;;;4976039;28;20353;-56
2021/10/26 10:35:44;;;;;;;9.57;6.03;;;12.00;50.40;;;;;;4974574;28;20026;-56
2021/10/26 10:38:10;;;;;;;9.27;5.68;;;12.00;50.20;;;;;;4979465;28;20085;-55
2021/10/26 10:40:37;;;;;;;9.25;5.70;;;12.00;50.10;;;;;;4979656;28;20418;-56
2021/10/26 10:43:03;;;;;;;7.32;5.30;;;12.00;50.10;;;;;;4983077;28;20098;-56
2021/10/26 10:45:34;;;;;;;9.23;5.43;;;12.00;50.20;;;;;;4974267;28;20031;-55
2021/10/26 10:48:02;;;;;;;6.88;5.15;;;12.00;50.00;;;;;;4980991;28;20061;-55
2021/10/26 10:50:38;;;;;;;7.05;4.75;;;12.00;50.10;;;;;;4980920;28;20029;-55
2021/10/26 10:53:18;;;;;;;6.97;5.28;;;12.10;50.00;;;;;;4981210;28;20030;-53
2021/10/26 10:55:50;;;;;;;8.48;5.93;;;12.10;49.90;;;;;;4981585;28;20038;-51
2021/10/26 10:58:22;;;;;;;10.13;6.03;;;12.10;50.00;;;;;;4986725;28;20066;-52
2021/10/26 11:00:48;;;;;;;9.25;6.13;;;12.10;50.00;;;;;;4981035;28;20558;-53
2021/10/26 11:03:33;;;;;;;9.45;6.32;;;12.10;49.90;;;;;;4970333;28;20034;-52
2021/10/26 11:06:01;;;;;;;9.45;5.63;;;12.20;49.80;;;;;;4973840;28;20041;-52
2021/10/26 11:08:45;;;;;;;8.73;5.75;;;12.20;49.70;;;;;;4974095;28;20030;-53
2021/10/26 11:11:11;;;;;;;8.80;4.97;;;12.20;49.70;;;;;;4969496;28;20045;-56
2021/10/26 11:13:38;;;;;;;7.85;5.10;;;12.20;49.70;;;;;;4966375;28;20030;-50
2021/10/26 11:16:09;;;;;;;7.60;4.93;;;12.20;49.60;;;;;;4968063;28;20034;-51
2021/10/26 11:18:49;;;;;;;6.88;5.07;;;12.20;49.50;;;;;;4969553;28;20018;-54
2021/10/26 11:21:21;;;;;;;7.72;5.38;;;12.20;49.50;;;;;;4959865;28;20120;-52
2021/10/26 11:23:48;;;;;;;8.25;5.40;;;12.30;49.50;;;;;;4964087;28;20034;-52
2021/10/26 11:26:48;;;;;;;8.15;5.10;;;12.30;49.50;;;;;;4969670;28;20034;-54
2021/10/26 11:29:27;;;;;;;8.05;4.70;;;12.30;49.30;;;;;;4968317;28;20062;-53
2021/10/26 11:31:53;;;;;;;6.00;4.28;;;12.20;49.20;;;;;;4976980;28;20125;-55
2021/10/26 11:34:27;;;;;;;6.93;4.47;;;12.30;49.20;;;;;;4975059;28;20044;-53
2021/10/26 11:37:09;;;;;;;10.70;3.97;;;12.30;49.30;;;;;;5092573;27;20965;-56
2021/10/26 11:39:37;;;;;;;6.45;4.47;;;12.30;49.20;;;;;;5091034;28;20063;-55
2021/10/26 11:42:07;;;;;;;5.45;3.78;;;12.30;49.10;;;;;;5086631;28;20135;-53
2021/10/26 11:44:33;;;;;;;5.50;4.10;;;12.30;49.00;;;;;;5070648;28;20088;-54
2021/10/26 11:47:02;;;;;;;4.65;3.90;;;12.30;49.00;;;;;;5090615;28;20032;-55
2021/10/26 11:49:30;;;;;;;6.03;3.72;;;12.30;48.90;;;;;;5090250;28;20064;-54
2021/10/26 11:52:01;;;;;;;10.70;5.00;;;12.30;49.00;;;;;;5083721;28;20024;-53
2021/10/26 11:54:33;;;;;;;8.93;5.38;;;12.30;49.00;;;;;;5089129;28;20031;-54
2021/10/26 11:57:06;;;;;;;8.18;5.57;;;12.40;49.10;;;;;;5090600;28;20407;-55
2021/10/26 11:59:36;;;;;;;6.38;4.70;;;12.40;49.10;;;;;;5081327;28;20032;-54
2021/10/26 12:02:05;;;;;;;6.30;4.70;;;12.40;49.10;;;;;;5082859;28;20039;-53
2021/10/26 12:04:38;;;;;;;5.90;4.50;;;12.40;49.10;;;;;;5085883;28;20027;-53
2021/10/26 12:07:09;;;;;;;5.85;3.90;;;12.40;49.00;;;;;;5086004;28;20032;-55
2021/10/26 12:09:37;;;;;;;10.93;3.78;;;12.40;49.10;;;;;;5090721;28;20040;-54
2021/10/26 12:12:23;;;;;;;5.28;3.65;;;12.40;49.20;;;;;;5085074;28;20115;-54
2021/10/26 12:14:53;;;;;;;6.20;4.15;;;12.40;49.10;;;;;;5071296;28;20065;-54
2021/10/26 12:17:27;;;;;;;5.60;4.43;;;12.40;49.20;;;;;;5086628;28;20023;-54
2021/10/26 12:19:56;;;;;;;7.03;3.58;;;12.40;49.20;;;;;;5085000;28;20452;-53
2021/10/26 12:22:26;;;;;;;6.18;4.00;;;12.40;49.10;;;;;;5078652;28;21232;-54
2021/10/26 12:25:11;;;;;;;5.90;3.85;;;12.40;49.00;;;;;;5093537;28;20071;-54
2021/10/26 12:27:39;;;;;;;5.75;3.75;;;12.50;49.00;;;;;;5089713;28;20053;-54
2021/10/26 12:30:16;;;;;;;5.25;3.90;;;12.50;49.00;;;;;;5084621;28;20032;-52
2021/10/26 12:33:01;;;;;;;5.05;3.95;;;12.50;48.90;;;;;;5087137;28;20569;-54
2021/10/26 12:35:41;;;;;;;6.57;3.78;;;12.50;48.90;;;;;;5084570;28;20507;-54
2021/10/26 12:38:36;;;;;;;6.07;4.17;;;12.50;48.80;;;;;;5085820;28;20033;-54
2021/10/26 12:41:07;;;;;;;6.00;4.00;;;12.50;48.80;;;;;;5088101;28;20036;-54
2021/10/26 12:43:33;;;;;;;;;;;12.50;48.80;;;;;;5085084;28;20181;-52
2021/10/26 12:46:18;;;;;;;5.32;4.00;;;12.40;48.80;;;;;;5087703;28;19918;-54
2021/10/26 12:48:44;;;;;;;5.28;3.97;;;12.50;48.80;;;;;;5072160;28;20027;-54
2021/10/26 12:51:10;;;;;;;6.97;3.58;;;12.40;48.80;;;;;;5048884;28;20031;-53
2021/10/26 12:53:41;;;;;;;4.53;3.67;;;12.40;48.70;;;;;;5068193;28;20032;-55
2021/10/26 12:56:25;;;;;;;4.40;3.65;;;12.40;48.70;;;;;;5069491;28;20991;-54
2021/10/26 12:59:06;;;;;;;4.68;3.67;;;12.40;48.70;;;;;;5065761;28;20032;-54
2021/10/26 13:01:36;;;;;;;4.93;3.85;;;12.40;48.80;;;;;;5065380;28;20373;-53